sensor_id;sensor_type;location;lat;lon;timestamp;temperature;humidity
47022;DHT22;32779;52.264;6.154;2023-06-10T00:01:45;20.40;91.70
47022;DHT22;32779;52.264;6.154;2023-06-10T00:04:15;20.30;91.50
47022;DHT22;32779;52.264;6.154;2023-06-10T00:06:45;20.30;91.50
47022;DHT22;32779;52.264;6.154;2023-06-10T00:09:15;20.30;91.40
47022;DHT22;32779;52.264;6.154;2023-06-10T00:11:41;20.30;91.40
47022;DHT22;32779;52.264;6.154;2023-06-10T00:14:07;20.20;91.60
47022;DHT22;32779;52.264;6.154;2023-06-10T00:16:33;20.20;91.70
47022;DHT22;32779;52.264;6.154;2023-06-10T00:19:03;20.20;91.70
47022;DHT22;32779;52.264;6.154;2023-06-10T00:21:34;20.20;92.00
47022;DHT22;32779;52.264;6.154;2023-06-10T00:24:06;20.20;91.70
47022;DHT22;32779;52.264;6.154;2023-06-10T00:26:32;20.10;91.80
47022;DHT22;32779;52.264;6.154;2023-06-10T00:28:59;20.10;91.90
47022;DHT22;32779;52.264;6.154;2023-06-10T00:31:25;20.10;91.90
47022;DHT22;32779;52.264;6.154;2023-06-10T00:33:52;20.00;92.00
47022;DHT22;32779;52.264;6.154;2023-06-10T00:36:17;20.00;92.20
47022;DHT22;32779;52.264;6.154;2023-06-10T00:38:43;20.00;92.10
47022;DHT22;32779;52.264;6.154;2023-06-10T00:41:09;19.90;92.30
47022;DHT22;32779;52.264;6.154;2023-06-10T00:43:35;19.90;92.40
47022;DHT22;32779;52.264;6.154;2023-06-10T00:46:00;19.90;92.20
47022;DHT22;32779;52.264;6.154;2023-06-10T00:48:27;19.90;92.40
47022;DHT22;32779;52.264;6.154;2023-06-10T00:50:53;19.80;92.50
47022;DHT22;32779;52.264;6.154;2023-06-10T00:53:19;19.80;92.70
47022;DHT22;32779;52.264;6.154;2023-06-10T00:55:46;19.80;92.70
47022;DHT22;32779;52.264;6.154;2023-06-10T00:58:12;19.70;92.80
47022;DHT22;32779;52.264;6.154;2023-06-10T01:00:38;19.70;93.10
47022;DHT22;32779;52.264;6.154;2023-06-10T01:03:04;19.70;92.90
47022;DHT22;32779;52.264;6.154;2023-06-10T01:05:34;19.60;93.00
47022;DHT22;32779;52.264;6.154;2023-06-10T01:08:03;19.60;93.30
47022;DHT22;32779;52.264;6.154;2023-06-10T01:10:41;19.50;93.40
47022;DHT22;32779;52.264;6.154;2023-06-10T01:13:10;19.50;93.50
47022;DHT22;32779;52.264;6.154;2023-06-10T01:15:37;19.50;93.40
47022;DHT22;32779;52.264;6.154;2023-06-10T01:18:06;19.40;93.50
47022;DHT22;32779;52.264;6.154;2023-06-10T01:20:35;19.40;93.70
47022;DHT22;32779;52.264;6.154;2023-06-10T01:23:05;19.30;93.70
47022;DHT22;32779;52.264;6.154;2023-06-10T01:25:31;19.30;93.90
47022;DHT22;32779;52.264;6.154;2023-06-10T01:28:10;19.30;93.90
47022;DHT22;32779;52.264;6.154;2023-06-10T01:33:22;19.20;94.00
47022;DHT22;32779;52.264;6.154;2023-06-10T01:35:50;19.20;94.10
47022;DHT22;32779;52.264;6.154;2023-06-10T01:38:17;19.10;94.40
47022;DHT22;32779;52.264;6.154;2023-06-10T01:40:45;19.10;94.50
47022;DHT22;32779;52.264;6.154;2023-06-10T01:43:12;19.00;94.30
47022;DHT22;32779;52.264;6.154;2023-06-10T01:45:37;19.00;94.50
47022;DHT22;32779;52.264;6.154;2023-06-10T01:48:03;19.00;94.60
47022;DHT22;32779;52.264;6.154;2023-06-10T01:50:28;18.90;94.90
47022;DHT22;32779;52.264;6.154;2023-06-10T01:52:54;18.90;94.90
47022;DHT22;32779;52.264;6.154;2023-06-10T01:55:19;18.80;95.00
47022;DHT22;32779;52.264;6.154;2023-06-10T01:57:45;18.80;94.90
47022;DHT22;32779;52.264;6.154;2023-06-10T02:00:11;18.80;95.00
47022;DHT22;32779;52.264;6.154;2023-06-10T02:02:37;18.80;95.00
47022;DHT22;32779;52.264;6.154;2023-06-10T02:05:02;18.70;95.20
47022;DHT22;32779;52.264;6.154;2023-06-10T02:07:28;18.80;95.20
47022;DHT22;32779;52.264;6.154;2023-06-10T02:09:54;18.70;95.30
47022;DHT22;32779;52.264;6.154;2023-06-10T02:12:20;18.60;95.40
47022;DHT22;32779;52.264;6.154;2023-06-10T02:14:45;18.60;95.50
47022;DHT22;32779;52.264;6.154;2023-06-10T02:17:11;18.60;95.50
47022;DHT22;32779;52.264;6.154;2023-06-10T02:19:38;18.50;95.70
47022;DHT22;32779;52.264;6.154;2023-06-10T02:22:08;18.50;96.20
47022;DHT22;32779;52.264;6.154;2023-06-10T02:24:35;18.50;95.90
47022;DHT22;32779;52.264;6.154;2023-06-10T02:27:00;18.40;96.00
47022;DHT22;32779;52.264;6.154;2023-06-10T02:29:27;18.40;96.10
47022;DHT22;32779;52.264;6.154;2023-06-10T02:31:52;18.40;96.30
47022;DHT22;32779;52.264;6.154;2023-06-10T02:34:18;18.30;96.60
47022;DHT22;32779;52.264;6.154;2023-06-10T02:36:44;18.30;96.50
47022;DHT22;32779;52.264;6.154;2023-06-10T02:39:09;18.30;96.60
47022;DHT22;32779;52.264;6.154;2023-06-10T02:41:35;18.20;96.80
47022;DHT22;32779;52.264;6.154;2023-06-10T02:44:01;18.20;96.80
47022;DHT22;32779;52.264;6.154;2023-06-10T02:46:27;18.20;96.90
47022;DHT22;32779;52.264;6.154;2023-06-10T02:48:54;18.10;96.90
47022;DHT22;32779;52.264;6.154;2023-06-10T02:51:19;18.10;97.00
47022;DHT22;32779;52.264;6.154;2023-06-10T02:53:46;18.10;97.20
47022;DHT22;32779;52.264;6.154;2023-06-10T02:56:11;18.00;97.20
47022;DHT22;32779;52.264;6.154;2023-06-10T02:58:38;18.00;97.30
47022;DHT22;32779;52.264;6.154;2023-06-10T03:01:03;17.90;97.70
47022;DHT22;32779;52.264;6.154;2023-06-10T03:03:29;17.90;97.60
47022;DHT22;32779;52.264;6.154;2023-06-10T03:05:56;17.90;97.70
47022;DHT22;32779;52.264;6.154;2023-06-10T03:08:22;17.80;97.80
47022;DHT22;32779;52.264;6.154;2023-06-10T03:10:47;17.80;98.00
47022;DHT22;32779;52.264;6.154;2023-06-10T03:13:13;17.80;97.90
47022;DHT22;32779;52.264;6.154;2023-06-10T03:15:39;17.70;98.10
47022;DHT22;32779;52.264;6.154;2023-06-10T03:18:06;17.70;98.20
47022;DHT22;32779;52.264;6.154;2023-06-10T03:20:32;17.70;98.20
47022;DHT22;32779;52.264;6.154;2023-06-10T03:23:02;17.70;98.30
47022;DHT22;32779;52.264;6.154;2023-06-10T03:25:27;17.60;98.40
47022;DHT22;32779;52.264;6.154;2023-06-10T03:27:54;17.60;98.50
47022;DHT22;32779;52.264;6.154;2023-06-10T03:30:19;17.60;99.00
47022;DHT22;32779;52.264;6.154;2023-06-10T03:32:45;17.50;98.80
47022;DHT22;32779;52.264;6.154;2023-06-10T03:35:14;17.50;99.00
47022;DHT22;32779;52.264;6.154;2023-06-10T03:38:02;17.50;99.10
47022;DHT22;32779;52.264;6.154;2023-06-10T03:40:26;17.50;99.20
47022;DHT22;32779;52.264;6.154;2023-06-10T03:42:52;17.50;99.40
47022;DHT22;32779;52.264;6.154;2023-06-10T03:45:17;17.40;99.50
47022;DHT22;32779;52.264;6.154;2023-06-10T03:47:43;17.40;99.70
47022;DHT22;32779;52.264;6.154;2023-06-10T03:50:09;17.40;99.90
47022;DHT22;32779;52.264;6.154;2023-06-10T03:52:36;17.30;99.90
47022;DHT22;32779;52.264;6.154;2023-06-10T03:55:02;17.30;99.90
47022;DHT22;32779;52.264;6.154;2023-06-10T03:57:27;17.30;99.90
47022;DHT22;32779;52.264;6.154;2023-06-10T03:59:53;17.30;99.90
47022;DHT22;32779;52.264;6.154;2023-06-10T04:02:19;17.30;99.90
47022;DHT22;32779;52.264;6.154;2023-06-10T04:04:44;17.30;99.90
47022;DHT22;32779;52.264;6.154;2023-06-10T04:07:10;17.30;99.90
47022;DHT22;32779;52.264;6.154;2023-06-10T04:09:36;17.30;99.90
47022;DHT22;32779;52.264;6.154;2023-06-10T04:12:03;17.30;99.90
47022;DHT22;32779;52.264;6.154;2023-06-10T04:14:31;17.20;99.90
47022;DHT22;32779;52.264;6.154;2023-06-10T04:16:57;17.30;99.90
47022;DHT22;32779;52.264;6.154;2023-06-10T04:19:22;17.30;99.90
47022;DHT22;32779;52.264;6.154;2023-06-10T04:21:48;17.30;99.90
47022;DHT22;32779;52.264;6.154;2023-06-10T04:24:14;17.30;99.90
47022;DHT22;32779;52.264;6.154;2023-06-10T04:26:39;17.30;99.90
47022;DHT22;32779;52.264;6.154;2023-06-10T04:29:05;17.30;99.90
47022;DHT22;32779;52.264;6.154;2023-06-10T04:31:31;17.40;99.90
47022;DHT22;32779;52.264;6.154;2023-06-10T04:33:57;17.40;99.90
47022;DHT22;32779;52.264;6.154;2023-06-10T04:36:23;17.30;99.90
47022;DHT22;32779;52.264;6.154;2023-06-10T04:38:49;17.40;99.90
47022;DHT22;32779;52.264;6.154;2023-06-10T04:41:17;17.40;99.90
47022;DHT22;32779;52.264;6.154;2023-06-10T04:43:42;17.40;99.90
47022;DHT22;32779;52.264;6.154;2023-06-10T04:46:08;17.40;99.90
47022;DHT22;32779;52.264;6.154;2023-06-10T04:48:33;17.40;99.90
47022;DHT22;32779;52.264;6.154;2023-06-10T04:51:00;17.50;99.90
47022;DHT22;32779;52.264;6.154;2023-06-10T04:53:26;17.40;99.90
47022;DHT22;32779;52.264;6.154;2023-06-10T04:55:52;17.40;99.90
47022;DHT22;32779;52.264;6.154;2023-06-10T04:58:18;17.40;99.90
47022;DHT22;32779;52.264;6.154;2023-06-10T05:00:43;17.50;99.90
47022;DHT22;32779;52.264;6.154;2023-06-10T05:03:09;17.50;99.90
47022;DHT22;32779;52.264;6.154;2023-06-10T05:05:35;17.50;99.90
47022;DHT22;32779;52.264;6.154;2023-06-10T05:08:00;17.60;99.90
47022;DHT22;32779;52.264;6.154;2023-06-10T05:10:26;17.60;99.90
47022;DHT22;32779;52.264;6.154;2023-06-10T05:12:51;17.70;99.90
47022;DHT22;32779;52.264;6.154;2023-06-10T05:15:17;17.70;99.90
47022;DHT22;32779;52.264;6.154;2023-06-10T05:17:42;17.70;99.90
47022;DHT22;32779;52.264;6.154;2023-06-10T05:20:08;17.80;99.90
47022;DHT22;32779;52.264;6.154;2023-06-10T05:22:34;17.80;99.90
47022;DHT22;32779;52.264;6.154;2023-06-10T05:25:00;17.90;99.90
47022;DHT22;32779;52.264;6.154;2023-06-10T05:27:25;17.90;99.90
47022;DHT22;32779;52.264;6.154;2023-06-10T05:29:51;18.00;99.90
47022;DHT22;32779;52.264;6.154;2023-06-10T05:32:17;18.00;99.90
47022;DHT22;32779;52.264;6.154;2023-06-10T05:34:45;18.10;99.90
47022;DHT22;32779;52.264;6.154;2023-06-10T05:37:11;18.10;99.90
47022;DHT22;32779;52.264;6.154;2023-06-10T05:39:36;18.20;99.90
47022;DHT22;32779;52.264;6.154;2023-06-10T05:42:07;18.30;99.90
47022;DHT22;32779;52.264;6.154;2023-06-10T05:44:33;18.30;99.90
47022;DHT22;32779;52.264;6.154;2023-06-10T05:46:58;18.40;99.90
47022;DHT22;32779;52.264;6.154;2023-06-10T05:49:24;18.40;99.90
47022;DHT22;32779;52.264;6.154;2023-06-10T05:51:50;18.50;99.90
47022;DHT22;32779;52.264;6.154;2023-06-10T05:54:17;18.50;99.90
47022;DHT22;32779;52.264;6.154;2023-06-10T05:56:43;18.60;99.90
47022;DHT22;32779;52.264;6.154;2023-06-10T05:59:09;18.60;99.90
47022;DHT22;32779;52.264;6.154;2023-06-10T06:01:35;18.70;99.90
47022;DHT22;32779;52.264;6.154;2023-06-10T06:04:00;18.80;99.90
47022;DHT22;32779;52.264;6.154;2023-06-10T06:06:26;18.90;99.90
47022;DHT22;32779;52.264;6.154;2023-06-10T06:08:52;18.90;99.90
47022;DHT22;32779;52.264;6.154;2023-06-10T06:11:17;19.00;99.90
47022;DHT22;32779;52.264;6.154;2023-06-10T06:13:43;19.00;99.90
47022;DHT22;32779;52.264;6.154;2023-06-10T06:16:09;19.00;99.90
47022;DHT22;32779;52.264;6.154;2023-06-10T06:18:34;19.10;99.90
47022;DHT22;32779;52.264;6.154;2023-06-10T06:21:02;19.20;99.90
47022;DHT22;32779;52.264;6.154;2023-06-10T06:23:27;19.30;99.80
47022;DHT22;32779;52.264;6.154;2023-06-10T06:25:53;19.40;99.80
47022;DHT22;32779;52.264;6.154;2023-06-10T06:28:18;19.50;99.70
47022;DHT22;32779;52.264;6.154;2023-06-10T06:30:46;19.60;99.70
47022;DHT22;32779;52.264;6.154;2023-06-10T06:33:12;19.80;98.90
47022;DHT22;32779;52.264;6.154;2023-06-10T06:35:38;20.00;98.50
47022;DHT22;32779;52.264;6.154;2023-06-10T06:38:03;20.20;98.50
47022;DHT22;32779;52.264;6.154;2023-06-10T06:40:29;20.30;97.80
47022;DHT22;32779;52.264;6.154;2023-06-10T06:42:55;20.60;98.80
47022;DHT22;32779;52.264;6.154;2023-06-10T06:45:21;20.80;97.90
47022;DHT22;32779;52.264;6.154;2023-06-10T06:47:46;21.10;97.40
47022;DHT22;32779;52.264;6.154;2023-06-10T06:50:12;21.30;96.70
47022;DHT22;32779;52.264;6.154;2023-06-10T06:52:38;21.60;96.10
47022;DHT22;32779;52.264;6.154;2023-06-10T06:55:12;21.90;95.90
47022;DHT22;32779;52.264;6.154;2023-06-10T06:57:42;22.10;94.70
47022;DHT22;32779;52.264;6.154;2023-06-10T07:00:13;22.30;94.80
47022;DHT22;32779;52.264;6.154;2023-06-10T07:02:38;22.60;94.60
47022;DHT22;32779;52.264;6.154;2023-06-10T07:05:05;22.80;93.80
47022;DHT22;32779;52.264;6.154;2023-06-10T07:07:34;23.00;93.80
47022;DHT22;32779;52.264;6.154;2023-06-10T07:10:03;23.20;93.70
47022;DHT22;32779;52.264;6.154;2023-06-10T07:12:28;23.40;93.40
47022;DHT22;32779;52.264;6.154;2023-06-10T07:14:54;23.50;93.60
47022;DHT22;32779;52.264;6.154;2023-06-10T07:17:20;23.80;93.60
47022;DHT22;32779;52.264;6.154;2023-06-10T07:19:46;24.00;92.30
47022;DHT22;32779;52.264;6.154;2023-06-10T07:22:12;24.10;92.10
47022;DHT22;32779;52.264;6.154;2023-06-10T07:24:37;24.10;92.00
47022;DHT22;32779;52.264;6.154;2023-06-10T07:27:03;24.30;91.40
47022;DHT22;32779;52.264;6.154;2023-06-10T07:29:29;24.50;91.80
47022;DHT22;32779;52.264;6.154;2023-06-10T07:31:54;24.70;91.50
47022;DHT22;32779;52.264;6.154;2023-06-10T07:34:20;24.90;91.50
47022;DHT22;32779;52.264;6.154;2023-06-10T07:36:46;25.00;91.00
47022;DHT22;32779;52.264;6.154;2023-06-10T07:39:11;25.10;91.00
47022;DHT22;32779;52.264;6.154;2023-06-10T07:41:37;25.20;89.80
47022;DHT22;32779;52.264;6.154;2023-06-10T07:44:02;25.40;90.30
47022;DHT22;32779;52.264;6.154;2023-06-10T07:46:28;25.40;89.60
47022;DHT22;32779;52.264;6.154;2023-06-10T07:48:54;25.50;90.20
47022;DHT22;32779;52.264;6.154;2023-06-10T07:51:21;25.70;88.80
47022;DHT22;32779;52.264;6.154;2023-06-10T07:53:47;26.00;89.20
47022;DHT22;32779;52.264;6.154;2023-06-10T07:56:12;26.20;88.00
47022;DHT22;32779;52.264;6.154;2023-06-10T07:58:38;26.20;87.50
47022;DHT22;32779;52.264;6.154;2023-06-10T08:01:04;26.10;86.70
47022;DHT22;32779;52.264;6.154;2023-06-10T08:03:29;26.20;87.60
47022;DHT22;32779;52.264;6.154;2023-06-10T08:05:55;26.10;86.10
47022;DHT22;32779;52.264;6.154;2023-06-10T08:08:21;26.00;86.80
47022;DHT22;32779;52.264;6.154;2023-06-10T08:10:46;26.20;86.20
47022;DHT22;32779;52.264;6.154;2023-06-10T08:13:12;26.20;86.10
47022;DHT22;32779;52.264;6.154;2023-06-10T08:15:38;26.40;84.70
47022;DHT22;32779;52.264;6.154;2023-06-10T08:18:03;26.40;83.90
47022;DHT22;32779;52.264;6.154;2023-06-10T08:20:29;26.50;84.50
47022;DHT22;32779;52.264;6.154;2023-06-10T08:22:55;26.40;84.20
47022;DHT22;32779;52.264;6.154;2023-06-10T08:25:20;26.50;86.30
47022;DHT22;32779;52.264;6.154;2023-06-10T08:27:49;26.60;85.00
47022;DHT22;32779;52.264;6.154;2023-06-10T08:30:16;26.60;83.90
47022;DHT22;32779;52.264;6.154;2023-06-10T08:32:41;26.80;84.50
47022;DHT22;32779;52.264;6.154;2023-06-10T08:35:07;27.00;84.30
47022;DHT22;32779;52.264;6.154;2023-06-10T08:37:33;27.10;83.20
47022;DHT22;32779;52.264;6.154;2023-06-10T08:39:59;27.30;83.70
47022;DHT22;32779;52.264;6.154;2023-06-10T08:42:39;27.40;83.30
47022;DHT22;32779;52.264;6.154;2023-06-10T08:45:07;27.50;82.60
47022;DHT22;32779;52.264;6.154;2023-06-10T08:47:38;27.40;82.40
47022;DHT22;32779;52.264;6.154;2023-06-10T08:50:05;27.30;84.70
47022;DHT22;32779;52.264;6.154;2023-06-10T08:52:37;27.40;82.50
47022;DHT22;32779;52.264;6.154;2023-06-10T08:55:05;27.30;82.00
47022;DHT22;32779;52.264;6.154;2023-06-10T08:57:36;27.40;82.60
47022;DHT22;32779;52.264;6.154;2023-06-10T09:00:03;27.60;82.10
47022;DHT22;32779;52.264;6.154;2023-06-10T09:02:28;27.60;80.90
47022;DHT22;32779;52.264;6.154;2023-06-10T09:04:56;27.70;82.40
47022;DHT22;32779;52.264;6.154;2023-06-10T09:07:25;27.90;82.40
47022;DHT22;32779;52.264;6.154;2023-06-10T09:09:52;27.90;81.40
47022;DHT22;32779;52.264;6.154;2023-06-10T09:12:19;27.60;82.50
47022;DHT22;32779;52.264;6.154;2023-06-10T09:14:44;27.70;81.40
47022;DHT22;32779;52.264;6.154;2023-06-10T09:17:10;27.90;81.90
47022;DHT22;32779;52.264;6.154;2023-06-10T09:19:38;28.00;81.60
47022;DHT22;32779;52.264;6.154;2023-06-10T09:22:04;28.10;81.30
47022;DHT22;32779;52.264;6.154;2023-06-10T09:24:30;28.20;81.40
47022;DHT22;32779;52.264;6.154;2023-06-10T09:27:06;28.10;81.50
47022;DHT22;32779;52.264;6.154;2023-06-10T09:29:55;28.00;79.90
47022;DHT22;32779;52.264;6.154;2023-06-10T09:32:24;28.20;81.10
47022;DHT22;32779;52.264;6.154;2023-06-10T09:34:50;28.20;81.20
47022;DHT22;32779;52.264;6.154;2023-06-10T09:37:25;28.10;81.20
47022;DHT22;32779;52.264;6.154;2023-06-10T09:40:04;28.00;80.30
47022;DHT22;32779;52.264;6.154;2023-06-10T09:42:33;28.10;82.00
47022;DHT22;32779;52.264;6.154;2023-06-10T09:44:59;28.30;82.40
47022;DHT22;32779;52.264;6.154;2023-06-10T09:47:25;28.00;80.40
47022;DHT22;32779;52.264;6.154;2023-06-10T09:49:51;28.10;81.60
47022;DHT22;32779;52.264;6.154;2023-06-10T09:52:27;27.90;79.60
47022;DHT22;32779;52.264;6.154;2023-06-10T09:55:02;27.90;81.10
47022;DHT22;32779;52.264;6.154;2023-06-10T09:57:32;28.10;81.50
47022;DHT22;32779;52.264;6.154;2023-06-10T10:00:10;28.30;80.90
47022;DHT22;32779;52.264;6.154;2023-06-10T10:02:52;28.40;79.80
47022;DHT22;32779;52.264;6.154;2023-06-10T10:05:20;28.50;79.30
47022;DHT22;32779;52.264;6.154;2023-06-10T10:07:47;28.60;78.80
47022;DHT22;32779;52.264;6.154;2023-06-10T10:10:14;28.30;78.80
47022;DHT22;32779;52.264;6.154;2023-06-10T10:12:41;28.30;80.10
47022;DHT22;32779;52.264;6.154;2023-06-10T10:15:11;28.30;79.00
47022;DHT22;32779;52.264;6.154;2023-06-10T10:17:44;28.30;79.50
47022;DHT22;32779;52.264;6.154;2023-06-10T10:20:13;28.40;79.50
47022;DHT22;32779;52.264;6.154;2023-06-10T10:22:41;28.40;79.00
47022;DHT22;32779;52.264;6.154;2023-06-10T10:25:11;28.60;78.40
47022;DHT22;32779;52.264;6.154;2023-06-10T10:27:44;28.40;78.50
47022;DHT22;32779;52.264;6.154;2023-06-10T10:30:14;28.50;79.20
47022;DHT22;32779;52.264;6.154;2023-06-10T10:33:04;28.30;79.50
47022;DHT22;32779;52.264;6.154;2023-06-10T10:35:32;28.30;80.00
47022;DHT22;32779;52.264;6.154;2023-06-10T10:37:58;28.40;81.70
47022;DHT22;32779;52.264;6.154;2023-06-10T10:40:25;28.60;79.30
47022;DHT22;32779;52.264;6.154;2023-06-10T10:42:52;28.70;80.40
47022;DHT22;32779;52.264;6.154;2023-06-10T10:45:18;28.70;77.40
47022;DHT22;32779;52.264;6.154;2023-06-10T10:47:52;28.50;78.20
47022;DHT22;32779;52.264;6.154;2023-06-10T10:50:19;28.50;78.30
47022;DHT22;32779;52.264;6.154;2023-06-10T10:55:20;28.70;77.30
47022;DHT22;32779;52.264;6.154;2023-06-10T10:57:54;28.70;77.60
47022;DHT22;32779;52.264;6.154;2023-06-10T11:00:30;28.60;78.50
47022;DHT22;32779;52.264;6.154;2023-06-10T11:03:05;28.70;79.30
47022;DHT22;32779;52.264;6.154;2023-06-10T11:05:39;28.70;76.40
47022;DHT22;32779;52.264;6.154;2023-06-10T11:08:07;28.60;77.30
47022;DHT22;32779;52.264;6.154;2023-06-10T11:10:35;28.60;76.70
47022;DHT22;32779;52.264;6.154;2023-06-10T11:13:09;28.70;75.60
47022;DHT22;32779;52.264;6.154;2023-06-10T11:15:48;28.70;77.10
47022;DHT22;32779;52.264;6.154;2023-06-10T11:18:25;28.50;76.30
47022;DHT22;32779;52.264;6.154;2023-06-10T11:21:01;28.50;77.00
47022;DHT22;32779;52.264;6.154;2023-06-10T11:36:20;28.70;73.60
47022;DHT22;32779;52.264;6.154;2023-06-10T11:38:46;28.70;74.10
47022;DHT22;32779;52.264;6.154;2023-06-10T11:41:13;28.50;73.90
47022;DHT22;32779;52.264;6.154;2023-06-10T11:43:45;28.60;76.40
47022;DHT22;32779;52.264;6.154;2023-06-10T11:46:12;28.70;76.00
47022;DHT22;32779;52.264;6.154;2023-06-10T11:48:38;28.70;74.40
47022;DHT22;32779;52.264;6.154;2023-06-10T11:51:07;28.80;73.30
47022;DHT22;32779;52.264;6.154;2023-06-10T11:53:33;28.80;73.80
47022;DHT22;32779;52.264;6.154;2023-06-10T11:56:00;28.90;74.80
47022;DHT22;32779;52.264;6.154;2023-06-10T11:58:26;29.00;73.50
47022;DHT22;32779;52.264;6.154;2023-06-10T12:00:54;29.10;75.40
47022;DHT22;32779;52.264;6.154;2023-06-10T12:03:26;29.10;72.70
47022;DHT22;32779;52.264;6.154;2023-06-10T12:06:02;29.10;73.50
47022;DHT22;32779;52.264;6.154;2023-06-10T12:08:28;29.10;72.20
47022;DHT22;32779;52.264;6.154;2023-06-10T12:10:54;29.00;72.60
47022;DHT22;32779;52.264;6.154;2023-06-10T12:13:20;29.00;73.60
47022;DHT22;32779;52.264;6.154;2023-06-10T12:15:47;29.20;72.00
47022;DHT22;32779;52.264;6.154;2023-06-10T12:18:23;29.10;73.10
47022;DHT22;32779;52.264;6.154;2023-06-10T12:20:50;29.20;73.30
47022;DHT22;32779;52.264;6.154;2023-06-10T12:23:18;28.90;71.70
47022;DHT22;32779;52.264;6.154;2023-06-10T12:25:55;28.90;73.50
47022;DHT22;32779;52.264;6.154;2023-06-10T12:28:25;29.00;72.40
47022;DHT22;32779;52.264;6.154;2023-06-10T12:31:06;29.10;72.40
47022;DHT22;32779;52.264;6.154;2023-06-10T12:33:33;29.20;72.50
47022;DHT22;32779;52.264;6.154;2023-06-10T12:35:58;29.30;72.30
47022;DHT22;32779;52.264;6.154;2023-06-10T12:38:25;29.30;71.90
47022;DHT22;32779;52.264;6.154;2023-06-10T12:41:00;29.40;73.80
47022;DHT22;32779;52.264;6.154;2023-06-10T12:43:27;29.40;72.30
47022;DHT22;32779;52.264;6.154;2023-06-10T12:45:53;29.40;70.70
47022;DHT22;32779;52.264;6.154;2023-06-10T12:48:21;29.40;71.90
47022;DHT22;32779;52.264;6.154;2023-06-10T12:50:58;29.30;71.80
47022;DHT22;32779;52.264;6.154;2023-06-10T12:53:24;29.40;72.60
47022;DHT22;32779;52.264;6.154;2023-06-10T12:55:52;29.40;70.90
47022;DHT22;32779;52.264;6.154;2023-06-10T12:58:20;29.40;70.30
47022;DHT22;32779;52.264;6.154;2023-06-10T13:00:46;29.40;71.40
47022;DHT22;32779;52.264;6.154;2023-06-10T13:03:14;29.40;71.90
47022;DHT22;32779;52.264;6.154;2023-06-10T13:05:39;29.50;71.90
47022;DHT22;32779;52.264;6.154;2023-06-10T13:08:06;29.50;71.00
47022;DHT22;32779;52.264;6.154;2023-06-10T13:10:33;29.60;71.90
47022;DHT22;32779;52.264;6.154;2023-06-10T13:13:02;29.40;71.60
47022;DHT22;32779;52.264;6.154;2023-06-10T13:15:31;29.50;72.30
47022;DHT22;32779;52.264;6.154;2023-06-10T13:17:57;29.40;70.90
47022;DHT22;32779;52.264;6.154;2023-06-10T13:20:23;29.40;70.20
47022;DHT22;32779;52.264;6.154;2023-06-10T13:22:50;29.40;68.70
47022;DHT22;32779;52.264;6.154;2023-06-10T13:25:15;29.50;69.50
47022;DHT22;32779;52.264;6.154;2023-06-10T13:27:41;29.40;69.60
47022;DHT22;32779;52.264;6.154;2023-06-10T13:30:08;29.40;67.60
47022;DHT22;32779;52.264;6.154;2023-06-10T13:32:35;29.40;67.80
47022;DHT22;32779;52.264;6.154;2023-06-10T13:35:00;29.40;67.70
47022;DHT22;32779;52.264;6.154;2023-06-10T13:37:26;29.20;67.50
47022;DHT22;32779;52.264;6.154;2023-06-10T13:39:52;29.20;67.20
47022;DHT22;32779;52.264;6.154;2023-06-10T13:42:18;29.30;68.40
47022;DHT22;32779;52.264;6.154;2023-06-10T13:44:44;29.40;69.50
47022;DHT22;32779;52.264;6.154;2023-06-10T13:47:10;29.50;68.30
47022;DHT22;32779;52.264;6.154;2023-06-10T13:49:36;29.50;67.40
47022;DHT22;32779;52.264;6.154;2023-06-10T13:52:02;29.40;65.30
47022;DHT22;32779;52.264;6.154;2023-06-10T13:54:28;29.50;64.70
47022;DHT22;32779;52.264;6.154;2023-06-10T13:56:53;29.40;65.30
47022;DHT22;32779;52.264;6.154;2023-06-10T13:59:19;29.40;66.70
47022;DHT22;32779;52.264;6.154;2023-06-10T14:01:45;29.50;65.50
47022;DHT22;32779;52.264;6.154;2023-06-10T14:04:11;29.50;66.00
47022;DHT22;32779;52.264;6.154;2023-06-10T14:06:37;29.40;65.00
47022;DHT22;32779;52.264;6.154;2023-06-10T14:09:03;29.40;67.20
47022;DHT22;32779;52.264;6.154;2023-06-10T14:11:29;29.50;65.40
47022;DHT22;32779;52.264;6.154;2023-06-10T14:13:54;29.60;66.30
47022;DHT22;32779;52.264;6.154;2023-06-10T14:16:21;29.70;68.30
47022;DHT22;32779;52.264;6.154;2023-06-10T14:18:47;29.70;66.20
47022;DHT22;32779;52.264;6.154;2023-06-10T14:21:13;29.70;65.20
47022;DHT22;32779;52.264;6.154;2023-06-10T14:23:38;29.50;64.50
47022;DHT22;32779;52.264;6.154;2023-06-10T14:26:04;29.50;66.30
47022;DHT22;32779;52.264;6.154;2023-06-10T14:28:32;29.50;66.40
47022;DHT22;32779;52.264;6.154;2023-06-10T14:30:58;29.60;69.20
47022;DHT22;32779;52.264;6.154;2023-06-10T14:33:23;29.50;67.10
47022;DHT22;32779;52.264;6.154;2023-06-10T14:35:49;29.50;67.20
47022;DHT22;32779;52.264;6.154;2023-06-10T14:38:15;29.60;68.00
47022;DHT22;32779;52.264;6.154;2023-06-10T14:40:40;29.50;66.70
47022;DHT22;32779;52.264;6.154;2023-06-10T14:43:06;29.60;67.90
47022;DHT22;32779;52.264;6.154;2023-06-10T14:45:39;29.60;67.20
47022;DHT22;32779;52.264;6.154;2023-06-10T14:48:06;29.70;66.40
47022;DHT22;32779;52.264;6.154;2023-06-10T14:50:34;29.60;66.20
47022;DHT22;32779;52.264;6.154;2023-06-10T14:53:00;29.70;66.80
47022;DHT22;32779;52.264;6.154;2023-06-10T14:55:25;29.70;68.20
47022;DHT22;32779;52.264;6.154;2023-06-10T14:57:51;29.70;64.60
47022;DHT22;32779;52.264;6.154;2023-06-10T15:00:17;29.60;64.10
47022;DHT22;32779;52.264;6.154;2023-06-10T15:02:47;29.50;64.90
47022;DHT22;32779;52.264;6.154;2023-06-10T15:05:14;29.50;65.30
47022;DHT22;32779;52.264;6.154;2023-06-10T15:07:41;29.50;67.70
47022;DHT22;32779;52.264;6.154;2023-06-10T15:10:07;29.50;67.00
47022;DHT22;32779;52.264;6.154;2023-06-10T15:12:32;29.70;66.40
47022;DHT22;32779;52.264;6.154;2023-06-10T15:14:58;29.80;65.90
47022;DHT22;32779;52.264;6.154;2023-06-10T15:17:23;29.70;66.50
47022;DHT22;32779;52.264;6.154;2023-06-10T15:19:49;29.80;68.20
47022;DHT22;32779;52.264;6.154;2023-06-10T15:22:15;29.80;66.60
47022;DHT22;32779;52.264;6.154;2023-06-10T15:24:40;29.90;67.50
47022;DHT22;32779;52.264;6.154;2023-06-10T15:27:06;29.90;66.10
47022;DHT22;32779;52.264;6.154;2023-06-10T15:29:32;29.80;65.80
47022;DHT22;32779;52.264;6.154;2023-06-10T15:31:57;29.80;66.90
47022;DHT22;32779;52.264;6.154;2023-06-10T15:34:23;29.80;65.90
47022;DHT22;32779;52.264;6.154;2023-06-10T15:36:49;29.80;64.40
47022;DHT22;32779;52.264;6.154;2023-06-10T15:39:14;29.90;66.90
47022;DHT22;32779;52.264;6.154;2023-06-10T15:41:40;29.90;65.30
47022;DHT22;32779;52.264;6.154;2023-06-10T15:44:07;29.90;64.90
47022;DHT22;32779;52.264;6.154;2023-06-10T15:46:32;29.90;66.40
47022;DHT22;32779;52.264;6.154;2023-06-10T15:48:59;29.90;66.10